Time;durP1;ratioP1;P1;durP2;ratioP2;P2;SDS_P1;SDS_P2;PMS_P1;PMS_P2;Temp;Humidity;BMP_temperature;BMP_pressure;BME280_temperature;BME280_humidity;BME280_pressure;Samples;Min_cycle;Max_cycle;Signal;HPM_P1;HPM_P2
2022/08/11 00:01:24;;;;;;;6.30;4.60;;;;;;;14.03;88.11;97693.89;109797;1250;58888;-71
2022/08/11 00:03:59;;;;;;;6.00;5.40;;;;;;;14.03;87.61;97694.64;110220;1247;58857;-71
2022/08/11 00:06:33;;;;;;;6.10;5.20;;;;;;;14.01;90.64;97692.50;110165;1247;69815;-72
2022/08/11 00:09:09;;;;;;;6.10;5.30;;;;;;;14.00;91.66;97687.65;110361;1248;69293;-72
2022/08/11 00:11:52;;;;;;;9.10;6.40;;;;;;;14.00;91.95;97684.20;110216;1247;67738;-73
2022/08/11 00:14:32;;;;;;;7.30;5.60;;;;;;;14.00;92.74;97681.89;110235;1247;59403;-73
2022/08/11 00:17:09;;;;;;;6.10;5.50;;;;;;;14.02;93.31;97678.95;110229;1247;58884;-72
2022/08/11 00:19:45;;;;;;;4.30;3.90;;;;;;;14.04;92.44;97680.89;110291;1247;70750;-71
2022/08/11 00:22:38;;;;;;;5.50;4.60;;;;;;;14.04;89.16;97680.02;110146;1247;69415;-72
2022/08/11 00:25:14;;;;;;;6.70;5.40;;;;;;;14.03;90.01;97677.98;110229;1247;68514;-72
2022/08/11 00:27:47;;;;;;;6.80;5.80;;;;;;;14.01;92.96;97674.77;110160;1247;58872;-71
2022/08/11 00:30:17;;;;;;;7.20;5.80;;;;;;;13.99;90.94;97669.89;110140;1247;58863;-72
2022/08/11 00:32:58;;;;;;;7.40;6.50;;;;;;;13.94;90.29;97670.64;110234;1247;69923;-71
2022/08/11 00:35:31;;;;;;;8.30;7.50;;;;;;;13.90;90.36;97670.27;110194;1247;68368;-72
2022/08/11 00:38:24;;;;;;;5.90;5.30;;;;;;;13.86;89.44;97670.23;110058;1249;69932;-72
2022/08/11 00:41:15;;;;;;;6.50;5.80;;;;;;;13.82;88.84;97668.29;110170;1247;58862;-72
2022/08/11 00:44:03;;;;;;;6.90;6.20;;;;;;;13.75;90.71;97670.61;110250;1247;58875;-72
2022/08/11 00:46:37;;;;;;;7.90;7.20;;;;;;;13.68;92.29;97675.53;110267;1247;70027;-73
2022/08/11 00:49:44;;;;;;;7.50;6.80;;;;;;;13.62;91.99;97676.23;110433;1247;67809;-71
2022/08/11 00:53:03;;;;;;;9.00;7.50;;;;;;;13.54;91.76;97674.13;109682;1248;68638;-71
2022/08/11 00:56:14;;;;;;;5.90;5.40;;;;;;;13.45;91.19;97672.35;109520;1248;58906;-73
2022/08/11 00:59:21;;;;;;;7.50;6.80;;;;;;;13.37;92.30;97678.94;110154;1247;58913;-72
2022/08/11 01:02:15;;;;;;;8.50;6.80;;;;;;;13.29;91.42;97682.95;110188;1247;69974;-71
2022/08/11 01:05:02;;;;;;;9.00;6.80;;;;;;;13.23;90.78;97685.32;110198;1247;69250;-71
2022/08/11 01:07:59;;;;;;;7.50;6.80;;;;;;;13.18;89.87;97682.51;110256;1247;68713;-72
2022/08/11 01:11:05;;;;;;;10.90;6.70;;;;;;;13.13;92.31;97685.35;110500;1247;58950;-72
2022/08/11 01:13:59;;;;;;;5.50;4.70;;;;;;;13.08;90.30;97686.65;110217;1247;58863;-72
2022/08/11 01:16:59;;;;;;;5.70;4.70;;;;;;;13.05;89.57;97685.63;110159;1247;70817;-72
2022/08/11 01:20:04;;;;;;;6.60;5.10;;;;;;;13.06;92.65;97681.92;110229;1247;69052;-72
2022/08/11 01:22:58;;;;;;;7.80;7.00;;;;;;;13.06;92.94;97677.67;110186;1247;68453;-72
2022/08/11 01:25:52;;;;;;;6.00;5.50;;;;;;;13.05;93.13;97675.48;110209;1247;58939;-72
2022/08/11 01:28:46;;;;;;;8.70;7.40;;;;;;;13.06;93.05;97671.77;110287;1247;58873;-71
2022/08/11 01:31:30;;;;;;;11.70;8.40;;;;;;;13.04;94.79;97667.35;110189;1247;70532;-72
2022/08/11 01:34:23;;;;;;;9.10;7.70;;;;;;;13.04;95.48;97667.36;110215;1247;68611;-71
2022/08/11 01:37:12;;;;;;;9.80;8.30;;;;;;;13.08;96.46;97663.00;110215;1247;69400;-72
2022/08/11 01:40:04;;;;;;;8.00;7.20;;;;;;;13.11;96.08;97662.79;110200;1247;58935;-72
2022/08/11 01:46:29;;;;;;;8.90;7.90;;;;;;;13.16;96.06;97661.65;110056;1247;70648;-72
2022/08/11 01:49:23;;;;;;;7.30;6.00;;;;;;;13.17;93.96;97663.86;110204;1247;69452;-72
2022/08/11 01:52:35;;;;;;;6.10;5.50;;;;;;;13.19;93.01;97662.27;109952;1248;68593;-72
2022/08/11 01:55:25;;;;;;;8.80;7.40;;;;;;;13.20;91.43;97660.09;110073;1247;58964;-72
2022/08/11 01:58:43;;;;;;;7.90;7.00;;;;;;;13.20;93.77;97662.94;110206;1247;58884;-72
2022/08/11 02:01:12;;;;;;;7.70;6.90;;;;;;;13.20;96.50;97658.38;109774;1250;70262;-73
2022/08/11 02:03:53;;;;;;;8.60;7.60;;;;;;;13.19;96.46;97656.16;110196;1247;69356;-71
2022/08/11 02:06:56;;;;;;;9.30;6.90;;;;;;;13.18;96.42;97655.58;110379;1246;68627;-73
2022/08/11 02:09:46;;;;;;;7.90;7.10;;;;;;;13.16;96.67;97655.52;110287;1247;58951;-73
2022/08/11 02:12:40;;;;;;;9.10;8.10;;;;;;;13.15;97.02;97654.79;110364;1247;58848;-73
2022/08/11 02:15:20;;;;;;;;;;;;;;;13.10;96.49;97651.98;110202;1247;70644;-73
2022/08/11 02:17:59;;;;;;;6.90;6.20;;;;;;;13.06;96.64;97646.52;110202;1247;68580;-73
2022/08/11 02:24:13;;;;;;;5.20;4.70;;;;;;;12.99;95.45;97645.55;110008;1247;58840;-72
2022/08/11 02:26:45;;;;;;;6.20;5.60;;;;;;;12.94;94.80;97645.39;110206;1247;58934;-71
2022/08/11 02:30:06;;;;;;;9.50;7.60;;;;;;;12.89;94.88;97646.83;110190;1247;70569;-72
2022/08/11 02:35:44;;;;;;;8.00;6.60;;;;;;;12.78;95.19;97641.92;109468;1254;69550;-72
2022/08/11 02:38:47;;;;;;;9.00;7.40;;;;;;;12.76;95.51;97647.16;109882;1250;58964;-72
2022/08/11 02:44:32;;;;;;;8.20;7.30;;;;;;;12.72;94.43;97650.83;110218;1247;69985;-72
2022/08/11 02:47:31;;;;;;;7.00;6.30;;;;;;;12.70;94.84;97650.61;110301;1247;69383;-71
2022/08/11 02:50:26;;;;;;;7.50;6.40;;;;;;;12.66;94.57;97654.58;110195;1247;67523;-72
2022/08/11 02:53:08;;;;;;;8.80;7.90;;;;;;;12.62;95.10;97650.73;110272;1247;58925;-72
2022/08/11 02:55:52;;;;;;;9.30;7.30;;;;;;;12.58;94.42;97652.20;110077;1246;58895;-72
2022/08/11 02:58:41;;;;;;;8.00;6.10;;;;;;;12.55;94.37;97651.60;110146;1247;70716;-73
2022/08/11 03:01:27;;;;;;;7.60;6.80;;;;;;;12.51;93.72;97653.45;110164;1247;69452;-72
2022/08/11 03:04:20;;;;;;;6.60;5.60;;;;;;;12.47;93.81;97652.02;110130;1247;69398;-72
2022/08/11 03:07:19;;;;;;;8.00;7.20;;;;;;;12.43;94.53;97652.35;110095;1247;58963;-73
2022/08/11 03:10:08;;;;;;;8.30;7.30;;;;;;;12.39;96.78;97653.71;110274;1247;59018;-72
2022/08/11 03:18:58;;;;;;;8.20;6.50;;;;;;;12.41;98.27;97654.06;110224;1247;68612;-72
2022/08/11 03:21:39;;;;;;;8.60;7.80;;;;;;;12.44;97.88;97655.39;110215;1247;59324;-72
2022/08/11 03:24:45;;;;;;;7.80;6.80;;;;;;;12.49;98.63;97654.85;110266;1247;58819;-72
2022/08/11 03:27:40;;;;;;;9.70;7.50;;;;;;;12.54;98.39;97652.54;110232;1247;69934;-72
2022/08/11 03:30:36;;;;;;;5.60;4.90;;;;;;;12.59;97.47;97650.73;110235;1247;69878;-72
2022/08/11 03:36:19;;;;;;;8.40;6.90;;;;;;;12.69;95.23;97660.09;110355;1247;58912;-73
2022/08/11 03:38:48;;;;;;;8.10;7.30;;;;;;;12.72;95.28;97659.88;110291;1247;58883;-73
2022/08/11 03:41:43;;;;;;;9.80;8.50;;;;;;;12.72;96.53;97662.47;110362;1247;70628;-73
2022/08/11 03:45:09;;;;;;;8.80;7.50;;;;;;;12.70;95.69;97660.05;110326;1247;69389;-71
2022/08/11 03:48:17;;;;;;;7.30;6.60;;;;;;;12.68;96.11;97661.75;110447;1247;68645;-71
2022/08/11 03:51:17;;;;;;;10.10;6.20;;;;;;;12.70;96.67;97662.63;110329;1247;58816;-71
2022/08/11 03:54:15;;;;;;;6.50;5.70;;;;;;;12.76;97.66;97659.08;110585;1247;58951;-71
2022/08/11 03:57:02;;;;;;;7.20;6.20;;;;;;;12.82;95.96;97657.91;110355;1247;70707;-74
2022/08/11 04:00:09;;;;;;;8.50;7.30;;;;;;;12.89;95.73;97655.62;110351;1246;68541;-71
2022/08/11 04:03:20;;;;;;;8.00;6.40;;;;;;;12.94;96.12;97651.66;110239;1247;69419;-72
2022/08/11 04:06:50;;;;;;;7.70;5.80;;;;;;;13.02;96.50;97647.95;110192;1247;58960;-72
2022/08/11 04:09:58;;;;;;;7.60;6.30;;;;;;;13.09;96.41;97652.45;110199;1247;58804;-72
2022/08/11 04:13:01;;;;;;;6.70;5.80;;;;;;;13.22;96.70;97650.20;110206;1247;70680;-72
2022/08/11 04:16:01;;;;;;;6.60;5.20;;;;;;;13.36;96.30;97647.05;110406;1247;69389;-71
2022/08/11 04:18:52;;;;;;;6.20;5.60;;;;;;;13.44;95.23;97642.98;110256;1247;69417;-73
2022/08/11 04:21:57;;;;;;;9.10;6.70;;;;;;;13.53;94.72;97642.67;110153;1247;58832;-73
2022/08/11 04:24:45;;;;;;;10.20;7.80;;;;;;;13.60;94.22;97642.83;110199;1246;58947;-74
2022/08/11 04:27:29;;;;;;;7.50;6.80;;;;;;;13.69;94.16;97643.05;110170;1247;70660;-73
2022/08/11 04:30:16;;;;;;;5.60;5.10;;;;;;;13.87;93.94;97645.63;110203;1247;68491;-72
2022/08/11 04:33:03;;;;;;;;;;;;;;;14.11;93.45;97648.77;110271;1247;69448;-72
2022/08/11 04:35:48;;;;;;;6.90;6.20;;;;;;;14.35;92.18;97647.63;110178;1247;58916;-72
2022/08/11 04:38:46;;;;;;;7.20;5.90;;;;;;;14.57;91.85;97648.72;110213;1247;58811;-73
2022/08/11 04:43:19;;;;;;;7.60;6.80;;;;;;;14.72;90.41;97649.89;110243;1247;70727;-72
2022/08/11 04:44:56;;;;;;;7.00;6.40;;;;;;;14.80;89.44;97651.13;110114;1247;69358;-72
2022/08/11 05:03:34;;;;;;;7.90;4.80;;;;;;;17.07;80.67;97653.29;109489;1254;69412;-73
2022/08/11 05:06:52;;;;;;;5.30;4.10;;;;;;;17.66;79.91;97657.04;110153;1247;58868;-73
2022/08/11 05:09:34;;;;;;;5.10;3.90;;;;;;;18.28;78.38;97653.95;110257;1247;58953;-71
2022/08/11 05:12:29;;;;;;;3.70;3.40;;;;;;;18.76;78.34;97652.62;110188;1247;70538;-74
2022/08/11 05:35:48;;;;;;;3.80;2.70;;;;;;;20.38;62.93;97651.05;110289;1247;58920;-72
2022/08/11 05:58:33;;;;;;;3.90;2.80;;;;;;;22.49;51.44;97644.41;110229;1247;69378;-74
2022/08/11 06:01:20;;;;;;;3.60;2.70;;;;;;;21.95;51.30;97641.39;110280;1247;68680;-72
2022/08/11 06:06:49;;;;;;;3.30;2.60;;;;;;;22.22;52.12;97642.48;110136;1247;58947;-73
2022/08/11 06:09:27;;;;;;;3.40;2.60;;;;;;;22.20;52.24;97641.51;110191;1247;71024;-72
2022/08/11 06:12:00;;;;;;;3.10;2.70;;;;;;;22.69;52.66;97637.00;110169;1247;68573;-72
2022/08/11 06:14:29;;;;;;;2.70;2.50;;;;;;;22.98;51.42;97638.53;110207;1247;69261;-74
2022/08/11 06:17:01;;;;;;;4.00;3.00;;;;;;;23.08;49.85;97637.29;110346;1247;58970;-72
2022/08/11 06:19:40;;;;;;;4.90;2.80;;;;;;;23.18;50.52;97636.64;110387;1247;58870;-74
2022/08/11 06:22:11;;;;;;;3.40;2.90;;;;;;;23.44;51.86;97636.83;110233;1247;70875;-72
2022/08/11 06:24:41;;;;;;;3.50;2.50;;;;;;;23.76;50.99;97642.39;110355;1247;67743;-73
2022/08/11 06:27:20;;;;;;;4.80;2.60;;;;;;;24.00;49.05;97643.32;110287;1247;69303;-74
2022/08/11 06:29:50;;;;;;;2.80;2.60;;;;;;;24.19;49.86;97640.35;110227;1247;58882;-73
2022/08/11 06:32:31;;;;;;;3.30;2.80;;;;;;;24.37;49.96;97638.30;110277;1247;58929;-73
2022/08/11 06:35:19;;;;;;;3.20;2.90;;;;;;;24.69;49.55;97635.50;110368;1247;70743;-73
2022/08/11 06:38:15;;;;;;;3.40;2.80;;;;;;;24.88;48.25;97633.84;110249;1247;69213;-73
2022/08/11 06:43:58;;;;;;;3.80;3.10;;;;;;;24.12;46.87;97636.66;110312;1247;58942;-71
2022/08/11 06:46:38;;;;;;;3.40;2.50;;;;;;;23.99;47.98;97642.61;110319;1247;58897;-73
2022/08/11 06:52:03;;;;;;;3.10;2.70;;;;;;;24.70;47.68;97637.23;110290;1247;69783;-71
2022/08/11 06:54:40;;;;;;;3.60;2.80;;;;;;;24.97;48.11;97639.91;110212;1247;69861;-72
2022/08/11 07:02:54;;;;;;;3.70;2.10;;;;;;;25.67;44.70;97637.64;110367;1247;71144;-72
2022/08/11 07:05:42;;;;;;;3.10;2.30;;;;;;;25.76;44.85;97639.62;110309;1247;68453;-72
2022/08/11 07:17:20;;;;;;;3.40;2.60;;;;;;;24.93;45.34;97637.38;110390;1247;70704;-72
2022/08/11 07:28:57;;;;;;;3.70;2.60;;;;;;;25.15;44.53;97636.77;110387;1247;58825;-71
2022/08/11 07:31:39;;;;;;;3.70;2.40;;;;;;;25.66;44.88;97635.79;110051;1247;70854;-71
2022/08/11 07:34:07;;;;;;;3.00;2.60;;;;;;;26.12;43.48;97631.11;110379;1247;69393;-71
2022/08/11 07:36:49;;;;;;;3.80;3.00;;;;;;;26.16;42.91;97632.89;110168;1248;69460;-71
2022/08/11 07:39:24;;;;;;;3.30;2.60;;;;;;;25.98;43.32;97631.42;110341;1247;58887;-70
2022/08/11 07:41:56;;;;;;;3.50;2.80;;;;;;;26.31;41.89;97628.36;110097;1247;58876;-71
2022/08/11 07:44:30;;;;;;;3.00;2.70;;;;;;;26.31;40.97;97627.53;110197;1248;70870;-71
2022/08/11 07:52:40;;;;;;;4.30;2.90;;;;;;;25.47;42.86;97623.12;110038;1247;58970;-70
2022/08/11 07:55:16;;;;;;;;;;;;;;;25.92;42.01;97620.79;110151;1247;58951;-71
2022/08/11 08:17:56;;;;;;;2.70;2.00;;;;;;;28.37;37.53;97601.05;110344;1247;69309;-72
2022/08/11 08:20:48;;;;;;;2.00;1.80;;;;;;;28.73;36.67;97603.38;110395;1247;58913;-70
2022/08/11 08:23:32;;;;;;;2.30;1.80;;;;;;;29.16;35.56;97598.75;110330;1247;58970;-70
2022/08/11 08:30:46;;;;;;;2.30;2.00;;;;;;;28.98;34.01;97591.58;110171;1248;70234;-70
2022/08/11 08:31:54;;;;;;;3.20;2.00;;;;;;;29.03;35.41;97591.11;110098;1247;69343;-71
2022/08/11 08:34:30;;;;;;;3.80;2.10;;;;;;;29.07;36.40;97590.30;110264;1247;58929;-71
2022/08/11 08:37:05;;;;;;;2.60;2.00;;;;;;;29.22;35.37;97594.49;110289;1247;58885;-68
2022/08/11 08:39:54;;;;;;;2.50;1.80;;;;;;;29.05;36.10;97594.28;110012;1247;71149;-70
2022/08/11 08:42:37;;;;;;;2.80;2.00;;;;;;;28.68;34.66;97590.69;110116;1247;69509;-69
2022/08/11 08:45:17;;;;;;;2.60;2.10;;;;;;;29.08;34.46;97594.73;110073;1246;69867;-71
2022/08/11 08:47:56;;;;;;;2.00;1.70;;;;;;;29.23;34.85;97591.70;110261;1247;58865;-71
2022/08/11 08:51:32;;;;;;;;;;;;;;;29.91;33.53;97590.56;110310;1246;58884;-70
2022/08/11 08:53:31;;;;;;;2.30;2.10;;;;;;;30.37;33.41;97591.64;110402;1247;69782;-72
2022/08/11 08:56:01;;;;;;;2.50;2.00;;;;;;;30.52;32.21;97587.80;110129;1247;69427;-71
2022/08/11 08:58:33;;;;;;;2.00;1.70;;;;;;;29.87;33.18;97590.07;110156;1247;68463;-69
2022/08/11 09:01:05;;;;;;;1.90;1.70;;;;;;;30.33;32.67;97590.33;110191;1247;58948;-70
2022/08/11 09:03:37;;;;;;;3.50;1.90;;;;;;;30.51;32.19;97588.35;110280;1246;58969;-70
2022/08/11 09:06:30;;;;;;;2.10;1.90;;;;;;;30.43;31.68;97586.46;110210;1247;70218;-69
2022/08/11 09:08:59;;;;;;;3.00;2.00;;;;;;;29.56;32.73;97585.74;110251;1247;68423;-70
2022/08/11 09:11:49;;;;;;;2.20;1.90;;;;;;;28.97;33.48;97584.34;110150;1248;69535;-69
2022/08/11 09:14:22;;;;;;;2.00;1.60;;;;;;;27.91;35.00;97581.35;110207;1247;58947;-69
2022/08/11 09:16:52;;;;;;;3.30;2.50;;;;;;;27.33;35.78;97583.91;110281;1247;58951;-70
2022/08/11 09:19:25;;;;;;;3.70;2.00;;;;;;;27.17;36.17;97579.88;110210;1247;70845;-71
2022/08/11 09:27:28;;;;;;;2.60;2.10;;;;;;;26.12;38.23;97575.31;110028;1247;58950;-69
2022/08/11 09:29:57;;;;;;;2.50;2.10;;;;;;;26.31;38.13;97572.55;110314;1247;58872;-69
2022/08/11 09:32:28;;;;;;;3.80;2.30;;;;;;;26.65;38.05;97569.89;110281;1247;70783;-69
2022/08/11 09:34:57;;;;;;;2.60;1.70;;;;;;;26.70;38.09;97569.21;110211;1247;69440;-69
2022/08/11 09:40:27;;;;;;;2.00;1.80;;;;;;;27.72;37.25;97571.94;110199;1247;58966;-70
2022/08/11 09:45:52;;;;;;;1.60;1.40;;;;;;;28.25;33.96;97562.98;110254;1247;70829;-71
2022/08/11 09:48:24;;;;;;;1.60;1.50;;;;;;;29.09;33.59;97563.88;110278;1247;68439;-70
2022/08/11 09:51:00;;;;;;;2.40;1.80;;;;;;;29.95;32.56;97566.15;110300;1247;69438;-70
2022/08/11 09:53:36;;;;;;;1.90;1.70;;;;;;;30.29;32.00;97565.20;110283;1247;58888;-69
2022/08/11 09:59:00;;;;;;;2.20;1.90;;;;;;;30.97;29.65;97559.33;110222;1247;70720;-71
2022/08/11 10:01:42;;;;;;;3.10;1.80;;;;;;;31.16;29.99;97554.58;110289;1246;68970;-71
2022/08/11 10:04:17;;;;;;;1.60;1.40;;;;;;;31.64;31.34;97556.48;110309;1247;69281;-72
2022/08/11 10:07:04;;;;;;;2.90;1.90;;;;;;;32.17;29.98;97553.11;110333;1247;59178;-70
2022/08/11 10:09:48;;;;;;;3.20;1.70;;;;;;;32.47;30.91;97549.21;110316;1247;58870;-71
2022/08/11 10:12:29;;;;;;;3.10;1.70;;;;;;;32.66;29.88;97547.52;110370;1246;70564;-71
2022/08/11 10:20:49;;;;;;;2.00;1.50;;;;;;;33.58;27.11;97548.52;110178;1247;58918;-71
2022/08/11 10:26:49;;;;;;;2.00;1.40;;;;;;;32.59;27.46;97544.80;110149;1247;70765;-72
2022/08/11 10:35:29;;;;;;;1.60;1.30;;;;;;;32.96;28.45;97535.02;110224;1247;58939;-70
2022/08/11 10:38:00;;;;;;;1.50;1.40;;;;;;;33.44;27.28;97530.44;110154;1247;58866;-70
2022/08/11 10:40:39;;;;;;;2.20;1.30;;;;;;;33.35;27.05;97526.38;110331;1246;69944;-69
2022/08/11 10:43:12;;;;;;;1.50;1.30;;;;;;;33.43;26.83;97525.40;109805;1250;68450;-71
2022/08/11 10:49:00;;;;;;;2.40;1.50;;;;;;;34.28;26.32;97525.66;109977;1249;58953;-72
2022/08/11 11:00:05;;;;;;;2.10;1.60;;;;;;;33.18;26.83;97516.32;110174;1247;68669;-70
2022/08/11 11:02:34;;;;;;;2.80;1.70;;;;;;;32.93;27.68;97516.94;110028;1247;58888;-70
2022/08/11 11:05:14;;;;;;;2.00;1.40;;;;;;;32.22;27.93;97518.10;110192;1247;58873;-70
2022/08/11 11:07:59;;;;;;;1.80;1.10;;;;;;;31.93;27.55;97519.14;110233;1247;70830;-70
2022/08/11 11:10:28;;;;;;;2.10;1.60;;;;;;;30.87;29.01;97512.88;110247;1247;68631;-70
2022/08/11 11:18:36;;;;;;;3.10;1.50;;;;;;;30.18;29.49;97507.46;110226;1247;58889;-71
2022/08/11 11:21:08;;;;;;;1.40;1.30;;;;;;;29.63;31.52;97507.67;110315;1247;69748;-71
2022/08/11 11:24:10;;;;;;;2.30;1.70;;;;;;;29.50;32.04;97506.53;110289;1246;69332;-70
2022/08/11 11:27:29;;;;;;;2.10;1.70;;;;;;;29.11;32.62;97510.51;110247;1247;69439;-70
2022/08/11 11:30:02;;;;;;;2.20;1.70;;;;;;;29.29;32.91;97508.52;109492;1254;59056;-70
2022/08/11 11:32:34;;;;;;;2.00;1.50;;;;;;;30.03;32.29;97498.66;110062;1247;58921;-70
2022/08/11 11:35:25;;;;;;;1.70;1.50;;;;;;;30.81;30.86;97501.39;110218;1247;69942;-70
2022/08/11 11:37:56;;;;;;;4.20;1.80;;;;;;;31.17;29.48;97497.96;110058;1247;69826;-71
2022/08/11 11:40:33;;;;;;;1.60;1.30;;;;;;;31.25;28.63;97494.54;109988;1247;69709;-71
2022/08/11 11:43:04;;;;;;;1.60;1.40;;;;;;;31.92;29.02;97487.62;110292;1247;59297;-71
2022/08/11 11:45:32;;;;;;;2.60;1.60;;;;;;;32.34;28.92;97489.57;110317;1247;58885;-70
2022/08/11 11:48:02;;;;;;;1.70;1.40;;;;;;;32.54;27.55;97489.16;110083;1247;69218;-70
2022/08/11 11:50:36;;;;;;;1.90;1.40;;;;;;;32.92;27.21;97487.48;110058;1248;69184;-70
2022/08/11 11:53:08;;;;;;;2.10;1.60;;;;;;;33.23;27.35;97486.21;110246;1247;68617;-70
2022/08/11 11:55:38;;;;;;;1.90;1.20;;;;;;;32.89;26.17;97482.24;110060;1247;58907;-71
2022/08/11 12:03:45;;;;;;;1.80;1.30;;;;;;;32.81;26.79;97473.98;110265;1247;69409;-70
2022/08/11 12:06:17;;;;;;;1.30;1.20;;;;;;;33.13;27.76;97476.78;110214;1247;69458;-71
2022/08/11 12:08:49;;;;;;;2.40;1.70;;;;;;;33.75;26.82;97471.66;110301;1247;58951;-70
2022/08/11 12:14:14;;;;;;;1.60;1.40;;;;;;;33.88;25.39;97472.64;110052;1247;70708;-70
2022/08/11 12:16:45;;;;;;;1.50;1.40;;;;;;;34.02;25.56;97473.07;110074;1247;69415;-70
2022/08/11 12:19:20;;;;;;;1.70;1.40;;;;;;;34.33;24.95;97468.14;110026;1247;69855;-69
2022/08/11 12:27:28;;;;;;;1.60;1.30;;;;;;;32.42;25.47;97460.14;110197;1247;70638;-69
2022/08/11 12:30:10;;;;;;;1.80;1.10;;;;;;;31.76;27.44;97462.05;110213;1247;69428;-69
2022/08/11 12:32:40;;;;;;;1.60;1.40;;;;;;;31.00;28.24;97462.71;110105;1247;69266;-71
2022/08/11 12:35:10;;;;;;;3.10;1.40;;;;;;;30.41;29.92;97460.91;110059;1247;58884;-69
2022/08/11 12:37:46;;;;;;;1.50;1.30;;;;;;;30.10;29.73;97454.92;110123;1247;58882;-71
2022/08/11 12:46:32;;;;;;;2.70;1.90;;;;;;;28.24;32.63;97448.75;109729;1250;69402;-71
2022/08/11 12:52:13;;;;;;;2.30;1.80;;;;;;;27.39;34.36;97446.87;110247;1247;58862;-70
2022/08/11 12:54:58;;;;;;;1.90;1.70;;;;;;;27.10;35.56;97450.10;110263;1247;70711;-69
2022/08/11 13:06:04;;;;;;;5.20;3.00;;;;;;;26.49;36.45;97445.75;110255;1247;58953;-70
2022/08/11 13:08:36;;;;;;;3.00;2.10;;;;;;;26.33;37.20;97443.81;110182;1247;69794;-71
2022/08/11 13:14:16;;;;;;;3.00;2.00;;;;;;;26.02;37.21;97438.56;110212;1247;70193;-71
2022/08/11 13:19:37;;;;;;;3.20;2.40;;;;;;;25.62;37.85;97428.64;110148;1247;58949;-72
2022/08/11 13:22:13;;;;;;;2.90;1.80;;;;;;;25.35;37.95;97431.92;110256;1247;69804;-73
2022/08/11 13:25:00;;;;;;;2.10;1.80;;;;;;;25.34;38.14;97431.80;110035;1248;69391;-74
2022/08/11 13:27:40;;;;;;;2.40;1.90;;;;;;;25.27;38.70;97431.19;110046;1248;68480;-73
2022/08/11 13:33:13;;;;;;;2.50;2.00;;;;;;;25.37;38.33;97431.35;110177;1247;58924;-72
2022/08/11 13:35:51;;;;;;;2.40;2.10;;;;;;;25.81;37.38;97427.37;110146;1248;70501;-72
2022/08/11 13:38:32;;;;;;;2.20;1.60;;;;;;;26.39;38.21;97429.48;109987;1247;70539;-72
2022/08/11 13:41:46;;;;;;;2.50;2.00;;;;;;;26.97;37.52;97433.48;109860;1248;70353;-72
2022/08/11 13:44:12;;;;;;;2.40;1.70;;;;;;;27.41;37.76;97424.39;109942;1248;59160;-72
2022/08/11 13:46:57;;;;;;;2.40;1.80;;;;;;;27.69;36.67;97420.42;110004;1247;58910;-72
2022/08/11 13:49:46;;;;;;;2.90;2.40;;;;;;;27.89;36.77;97422.52;109766;1250;70882;-72
2022/08/11 13:52:29;;;;;;;1.70;1.60;;;;;;;28.03;35.16;97417.08;109876;1250;70482;-71
2022/08/11 13:55:07;;;;;;;1.80;1.60;;;;;;;27.55;34.82;97416.52;109761;1250;69418;-71
2022/08/11 13:58:11;;;;;;;2.10;1.70;;;;;;;26.96;36.59;97415.80;109974;1250;58853;-73
2022/08/11 14:01:10;;;;;;;2.40;1.90;;;;;;;26.65;36.63;97422.71;109962;1250;59204;-71
2022/08/11 14:04:17;;;;;;;2.10;1.70;;;;;;;26.35;37.48;97421.38;109706;1250;70312;-72
2022/08/11 14:07:06;;;;;;;8.30;2.70;;;;;;;26.20;37.07;97425.36;109896;1250;69317;-70
2022/08/11 14:09:41;;;;;;;2.90;1.90;;;;;;;26.12;36.44;97421.81;109775;1250;69241;-71
2022/08/11 14:15:32;;;;;;;2.10;1.50;;;;;;;26.79;36.02;97426.63;109881;1250;58801;-68
2022/08/11 14:18:02;;;;;;;2.30;1.70;;;;;;;27.15;36.58;97425.65;109799;1250;71334;-68
2022/08/11 14:23:30;;;;;;;2.60;1.60;;;;;;;27.45;36.28;97429.11;109775;1250;69421;-72
2022/08/11 14:28:53;;;;;;;2.30;1.40;;;;;;;27.63;35.15;97423.55;109948;1249;58882;-71
2022/08/11 14:31:25;;;;;;;2.40;1.80;;;;;;;27.69;33.46;97420.46;109917;1250;70778;-72
2022/08/11 14:33:59;;;;;;;1.80;1.50;;;;;;;27.77;32.67;97414.67;109766;1250;69270;-70
2022/08/11 14:36:35;;;;;;;2.10;1.40;;;;;;;27.65;32.56;97412.88;109897;1250;69499;-71
2022/08/11 14:39:16;;;;;;;1.70;1.50;;;;;;;27.62;32.28;97410.15;109824;1250;58934;-71
2022/08/11 14:47:47;;;;;;;1.70;1.40;;;;;;;27.53;33.80;97405.02;109908;1248;68714;-71
2022/08/11 14:50:22;;;;;;;1.60;1.30;;;;;;;27.57;33.58;97404.02;109681;1250;68843;-71
2022/08/11 14:53:05;;;;;;;1.40;1.20;;;;;;;27.60;32.74;97399.05;109882;1250;58894;-71
2022/08/11 14:58:28;;;;;;;1.60;1.30;;;;;;;27.56;32.59;97400.33;110128;1250;71144;-71
2022/08/11 15:00:59;;;;;;;2.20;1.40;;;;;;;27.35;33.07;97396.94;109840;1253;69266;-70
2022/08/11 15:03:32;;;;;;;2.40;1.70;;;;;;;27.37;33.21;97396.92;109844;1247;69624;-71
2022/08/11 15:06:03;;;;;;;2.20;1.30;;;;;;;27.29;33.07;97398.23;109932;1250;59359;-70
2022/08/11 15:08:55;;;;;;;1.50;1.30;;;;;;;27.25;33.48;97398.59;110019;1249;58904;-70
2022/08/11 15:17:49;;;;;;;1.60;1.30;;;;;;;27.26;34.47;97394.78;109557;1255;70077;-69
2022/08/11 15:25:59;;;;;;;1.60;1.30;;;;;;;27.09;34.34;97390.56;110009;1250;70543;-71
2022/08/11 15:46:46;;;;;;;4.00;3.60;;;;;;;26.30;33.97;97379.59;109889;1250;69585;-71
2022/08/11 15:49:22;;;;;;;2.50;2.00;;;;;;;26.16;34.26;97377.08;109855;1249;58871;-70
2022/08/11 15:52:20;;;;;;;4.70;3.00;;;;;;;26.03;35.24;97378.82;110239;1247;58876;-70
2022/08/11 15:54:50;;;;;;;2.50;2.00;;;;;;;25.98;35.96;97375.86;110209;1247;69973;-70
2022/08/11 16:05:46;;;;;;;1.70;1.40;;;;;;;25.86;36.84;97374.36;110047;1247;58861;-71
2022/08/11 16:08:24;;;;;;;2.40;2.00;;;;;;;25.85;35.77;97378.53;110215;1247;70740;-70
2022/08/11 16:11:02;;;;;;;4.00;2.60;;;;;;;25.79;35.59;97375.45;110235;1248;69267;-69
2022/08/11 16:16:15;;;;;;;2.40;1.60;;;;;;;25.57;35.88;97381.16;110116;1247;58918;-69
2022/08/11 16:18:55;;;;;;;2.50;2.20;;;;;;;25.46;35.98;97376.44;110236;1248;58882;-68
2022/08/11 16:21:32;;;;;;;2.70;1.90;;;;;;;25.32;37.91;97382.16;110104;1247;70544;-70
2022/08/11 16:24:09;;;;;;;4.00;2.00;;;;;;;25.22;38.34;97382.66;110231;1248;70051;-69
2022/08/11 16:27:00;;;;;;;2.40;1.80;;;;;;;25.12;38.78;97385.52;110086;1248;69506;-70
2022/08/11 16:29:46;;;;;;;2.40;2.00;;;;;;;25.11;38.17;97386.97;110075;1248;58944;-69
2022/08/11 16:32:22;;;;;;;2.40;2.10;;;;;;;25.04;38.41;97386.96;110119;1248;58883;-71
2022/08/11 16:40:36;;;;;;;5.40;4.90;;;;;;;24.67;39.53;97386.85;110174;1247;69238;-70
2022/08/11 16:48:48;;;;;;;3.50;2.60;;;;;;;24.39;40.03;97386.66;110082;1247;70339;-71
2022/08/11 16:51:19;;;;;;;3.40;2.10;;;;;;;24.31;40.34;97386.57;110197;1247;68584;-69
2022/08/11 16:53:49;;;;;;;4.90;4.30;;;;;;;24.24;40.27;97385.50;109073;1247;1736578;-69
2022/08/11 16:56:37;;;;;;;3.20;2.50;;;;;;;24.16;40.91;97385.49;110161;1247;58961;-69
2022/08/11 16:59:14;;;;;;;4.10;3.70;;;;;;;24.09;40.92;97387.32;110216;1247;58842;-69
2022/08/11 17:01:48;;;;;;;;;;;;;;;24.00;42.31;97387.77;110108;1247;70755;-70
2022/08/11 17:13:25;;;;;;;1.70;1.30;;;;;;;23.02;45.06;97390.08;110338;1247;58898;-69
2022/08/11 17:16:08;;;;;;;2.20;1.90;;;;;;;22.81;45.98;97389.47;110322;1247;71152;-70
2022/08/11 17:19:02;;;;;;;2.10;1.90;;;;;;;22.57;48.04;97392.64;110346;1247;69175;-70
2022/08/11 17:21:34;;;;;;;3.30;1.90;;;;;;;22.33;47.99;97398.42;110263;1247;70071;-70
2022/08/11 17:24:07;;;;;;;4.20;1.60;;;;;;;22.06;49.96;97394.89;110307;1247;58902;-69
2022/08/11 17:26:55;;;;;;;2.00;1.60;;;;;;;21.86;49.65;97395.27;110345;1247;58887;-69
2022/08/11 17:29:36;;;;;;;2.80;1.60;;;;;;;21.67;49.62;97396.30;110330;1247;70366;-72
2022/08/11 17:35:32;;;;;;;2.60;1.90;;;;;;;21.25;51.14;97397.73;110086;1250;69924;-71
2022/08/11 17:38:11;;;;;;;2.70;2.00;;;;;;;21.06;52.05;97399.81;110228;1248;58954;-71
2022/08/11 17:49:38;;;;;;;4.00;2.50;;;;;;;20.40;53.40;97410.32;110196;1248;70105;-70
2022/08/11 18:01:00;;;;;;;4.30;3.40;;;;;;;19.98;58.08;97423.14;110235;1248;68809;-71
2022/08/11 18:03:39;;;;;;;3.50;2.60;;;;;;;19.90;57.58;97421.91;110640;1247;68649;-71
2022/08/11 18:06:11;;;;;;;3.50;2.50;;;;;;;19.80;57.14;97425.71;110361;1246;58936;-70
